Time;durP1;ratioP1;P1;durP2;ratioP2;P2;SDS_P1;SDS_P2;PMS_P1;PMS_P2;Temp;Humidity;BMP_temperature;BMP_pressure;BME280_temperature;BME280_humidity;BME280_pressure;Samples;Min_cycle;Max_cycle;Signal;HPM_P1;HPM_P2
2021/04/21 00:00:22;;;;;;;8.15;7.35;;;;;;;14.22;52.51;101250.12;1675801;85;21555;-49
2021/04/21 00:02:52;;;;;;;9.03;7.47;;;;;;;14.18;52.54;101246.70;1647069;85;21194;-50
2021/04/21 00:05:22;;;;;;;8.65;7.65;;;;;;;14.19;52.46;101249.75;1656975;85;21180;-49
2021/04/21 00:07:50;;;;;;;10.13;8.00;;;;;;;14.18;52.47;101250.63;1682539;85;21168;-49
2021/04/21 00:10:20;;;;;;;8.80;8.00;;;;;;;14.18;52.57;101249.33;1697972;81;21326;-50
2021/04/21 00:12:49;;;;;;;10.53;8.98;;;;;;;14.17;52.52;101255.48;1753105;81;21125;-49
2021/04/21 00:15:21;;;;;;;8.93;8.00;;;;;;;14.15;52.50;101253.36;1745985;81;21167;-49
2021/04/21 00:17:50;;;;;;;;;;;;;;;14.14;52.57;101252.93;1737665;81;21188;-46
2021/04/21 00:20:17;;;;;;;8.68;7.87;;;;;;;14.11;52.78;101251.73;1749765;81;20409;-48
2021/04/21 00:22:50;;;;;;;8.38;7.58;;;;;;;14.08;52.75;101254.41;1748064;81;21325;-48
2021/04/21 00:25:17;;;;;;;8.58;7.78;;;;;;;14.06;52.71;101258.84;1746579;81;21289;-48
2021/04/21 00:27:45;;;;;;;8.80;7.90;;;;;;;14.05;52.78;101258.45;1745727;81;21553;-49
2021/04/21 00:30:14;;;;;;;8.03;7.22;;;;;;;14.07;52.84;101259.27;1745631;81;21172;-49
2021/04/21 00:32:46;;;;;;;7.40;6.62;;;;;;;14.07;52.90;101260.56;1701963;81;21136;-48
2021/04/21 00:35:18;;;;;;;8.73;7.92;;;;;;;14.07;52.89;101264.49;1745377;81;21576;-49
2021/04/21 00:37:46;;;;;;;8.15;7.35;;;;;;;14.07;53.00;101261.88;1742803;81;21159;-48
2021/04/21 00:40:18;;;;;;;10.00;7.50;;;;;;;14.06;53.00;101264.51;1718446;81;21172;-48
2021/04/21 00:42:59;;;;;;;8.80;8.00;;;;;;;14.04;53.07;101261.95;1744745;81;21132;-49
2021/04/21 00:45:46;;;;;;;8.70;7.90;;;;;;;14.02;53.03;101265.06;1748585;81;21135;-48
2021/04/21 00:48:53;;;;;;;8.15;7.35;;;;;;;14.02;53.04;101271.59;1737527;81;21155;-49
2021/04/21 00:51:44;;;;;;;7.80;7.10;;;;;;;13.99;53.13;101270.84;1741761;81;21191;-48
2021/04/21 00:54:41;;;;;;;8.75;7.92;;;;;;;13.97;52.96;101274.81;1745797;81;21458;-48
2021/04/21 00:57:41;;;;;;;8.90;8.00;;;;;;;13.96;52.88;101275.69;1742671;81;21306;-49
2021/04/21 01:00:18;;;;;;;8.55;7.72;;;;;;;14.02;52.85;101274.22;1825329;77;22911;-49
2021/04/21 01:03:19;;;;;;;8.90;8.08;;;;;;;13.97;52.85;101276.12;1803932;78;21129;-49
2021/04/21 01:05:51;;;;;;;7.75;6.97;;;;;;;13.94;52.89;101277.94;1814115;78;21142;-50
2021/04/21 01:08:28;;;;;;;10.28;8.33;;;;;;;13.91;52.96;101278.88;1706915;84;21188;-49
2021/04/21 01:11:06;;;;;;;9.33;7.28;;;;;;;13.90;53.05;101282.41;1710077;84;21261;-48
2021/04/21 01:13:44;;;;;;;8.48;7.45;;;;;;;13.87;53.16;101279.41;1674204;84;21232;-48
2021/04/21 01:16:14;;;;;;;8.18;7.03;;;;;;;13.85;53.14;101278.59;1705348;84;21257;-49
2021/04/21 01:18:42;;;;;;;8.73;7.92;;;;;;;13.85;52.99;101280.34;1710174;84;21608;-49
2021/04/21 01:21:29;;;;;;;7.35;6.70;;;;;;;13.87;52.97;101281.16;1710180;84;21607;-49
2021/04/21 01:24:35;;;;;;;9.48;8.48;;;;;;;13.89;52.87;101278.05;1710012;84;21167;-48
2021/04/21 01:27:08;;;;;;;8.40;7.60;;;;;;;13.92;52.79;101280.60;1710125;82;21227;-49
2021/04/21 01:29:47;;;;;;;8.73;7.92;;;;;;;13.89;52.77;101280.67;1710003;84;21175;-48
2021/04/21 01:32:28;;;;;;;8.40;7.47;;;;;;;13.89;52.77;101291.13;1710013;84;21168;-49
2021/04/21 01:34:57;;;;;;;8.73;7.87;;;;;;;13.88;52.75;101294.66;1709902;84;21151;-49
2021/04/21 01:37:31;;;;;;;8.75;7.67;;;;;;;13.86;52.78;101296.47;1685451;84;21699;-49
2021/04/21 01:40:12;;;;;;;8.78;7.78;;;;;;;13.84;52.83;101295.65;1709947;84;21219;-49
2021/04/21 01:42:43;;;;;;;9.55;8.03;;;;;;;13.80;52.88;101294.87;1710171;84;21164;-48
2021/04/21 01:45:13;;;;;;;7.60;6.90;;;;;;;13.80;52.88;101297.50;1710096;84;21180;-49
2021/04/21 01:47:42;;;;;;;8.30;7.50;;;;;;;13.78;52.84;101295.81;1697741;84;21170;-48
2021/04/21 01:50:14;;;;;;;8.33;7.55;;;;;;;13.75;52.78;101293.26;1710253;84;21159;-48
2021/04/21 01:53:04;;;;;;;8.90;8.00;;;;;;;13.74;52.75;101295.05;1710475;84;21178;-49
2021/04/21 01:55:46;;;;;;;11.83;8.60;;;;;;;13.75;52.73;101288.89;1710068;84;21179;-49
2021/04/21 01:58:31;;;;;;;8.05;7.25;;;;;;;13.73;52.59;101295.05;1711899;82;21365;-48
2021/04/21 02:01:28;;;;;;;8.45;7.58;;;;;;;13.62;52.47;101298.42;1698439;84;21192;-49
2021/04/21 02:04:20;;;;;;;8.43;7.12;;;;;;;13.49;52.62;101297.00;1699393;81;21180;-49
2021/04/21 02:07:03;;;;;;;8.05;7.22;;;;;;;13.38;52.94;101304.23;1756642;81;21196;-48
2021/04/21 02:10:07;;;;;;;8.25;7.50;;;;;;;13.33;53.36;101302.20;1678584;85;21213;-49
2021/04/21 02:12:52;;;;;;;9.40;7.58;;;;;;;13.35;53.52;101305.64;1676265;85;21705;-49
2021/04/21 02:15:41;;;;;;;10.30;7.70;;;;;;;13.39;53.60;101307.28;1677706;85;21173;-49
2021/04/21 02:18:23;;;;;;;8.03;7.22;;;;;;;13.43;53.61;101308.92;1673702;85;21279;-49
2021/04/21 02:21:15;;;;;;;8.35;7.55;;;;;;;13.46;53.64;101298.37;1664615;85;21183;-48
2021/04/21 02:23:53;;;;;;;8.15;7.30;;;;;;;13.49;53.54;101300.92;1677725;85;21603;-49
2021/04/21 02:26:44;;;;;;;8.95;8.05;;;;;;;13.54;53.44;101309.52;1677777;85;21205;-49
2021/04/21 02:29:42;;;;;;;8.43;7.62;;;;;;;13.56;53.34;101305.95;1677777;85;21219;-48
2021/04/21 02:32:45;;;;;;;10.20;7.47;;;;;;;13.58;53.24;101305.94;1677658;85;21192;-48
2021/04/21 02:35:29;;;;;;;9.27;8.40;;;;;;;13.58;53.21;101312.47;1673061;85;21203;-48
2021/04/21 02:38:08;;;;;;;11.38;7.95;;;;;;;13.55;53.22;101316.45;1673392;85;21170;-49
2021/04/21 02:41:08;;;;;;;9.08;8.18;;;;;;;13.58;53.27;101313.78;1771485;79;23095;-49
2021/04/21 02:44:00;;;;;;;9.18;8.28;;;;;;;13.51;53.34;101322.66;1739657;82;21136;-48
2021/04/21 02:46:38;;;;;;;;;;;;;;;13.49;53.38;101326.62;1743668;82;21160;-49
2021/04/21 02:49:23;;;;;;;9.90;8.90;;;;;;;13.48;53.47;101325.33;1740952;82;20488;-48
2021/04/21 02:52:05;;;;;;;8.43;7.58;;;;;;;13.21;54.08;101332.55;1739842;82;21605;-48
2021/04/21 02:55:11;;;;;;;9.35;8.13;;;;;;;13.12;54.32;101328.83;1678924;84;21218;-49
2021/04/21 02:58:13;;;;;;;9.03;8.10;;;;;;;13.14;54.53;101333.58;1772567;79;22684;-48
2021/04/21 03:00:59;;;;;;;10.13;8.58;;;;;;;13.11;54.56;101332.36;1744774;82;21592;-49
2021/04/21 03:03:41;;;;;;;8.20;7.50;;;;;;;13.12;54.48;101344.51;1737960;81;21160;-48
2021/04/21 03:06:11;;;;;;;8.35;7.55;;;;;;;13.13;54.38;101337.09;1737785;82;21188;-49
2021/04/21 03:08:43;;;;;;;8.35;7.55;;;;;;;13.14;54.31;101344.02;1737912;82;21184;-49
2021/04/21 03:11:20;;;;;;;10.15;7.75;;;;;;;13.13;54.33;101346.24;1707039;82;21192;-49
2021/04/21 03:14:25;;;;;;;10.28;8.15;;;;;;;13.13;54.49;101343.62;1707770;83;21172;-49
2021/04/21 03:17:01;;;;;;;8.53;7.62;;;;;;;13.15;54.58;101349.68;1801958;79;23059;-49
2021/04/21 03:19:50;;;;;;;8.93;8.05;;;;;;;13.12;54.49;101352.34;1782009;80;21299;-49
2021/04/21 03:22:18;;;;;;;8.25;7.53;;;;;;;13.12;54.52;101357.58;1791436;80;21148;-48
2021/04/21 03:25:09;;;;;;;8.43;7.67;;;;;;;13.13;54.36;101355.39;1729648;80;21168;-49
2021/04/21 03:27:41;;;;;;;9.18;8.28;;;;;;;13.12;54.27;101357.58;1780772;80;21116;-49
2021/04/21 03:30:13;;;;;;;9.25;7.37;;;;;;;13.11;54.37;101366.32;1782141;80;21556;-48
2021/04/21 03:32:45;;;;;;;8.15;7.33;;;;;;;13.10;54.45;101364.59;1760718;80;21120;-48
2021/04/21 03:35:14;;;;;;;9.08;8.18;;;;;;;13.09;54.50;101366.33;1783815;80;21144;-49
2021/04/21 03:37:54;;;;;;;8.60;7.70;;;;;;;13.08;54.49;101368.08;1715669;83;21299;-49
2021/04/21 03:40:22;;;;;;;8.23;7.42;;;;;;;13.11;54.43;101374.16;1743471;81;21117;-48
2021/04/21 03:42:50;;;;;;;9.28;8.38;;;;;;;13.13;54.43;101376.30;1668617;83;21301;-49
2021/04/21 03:45:18;;;;;;;8.88;8.05;;;;;;;13.15;54.41;101379.26;1689503;83;21168;-49
2021/04/21 03:47:46;;;;;;;8.68;7.87;;;;;;;13.15;54.00;101384.95;1676979;83;21204;-48
2021/04/21 03:50:15;;;;;;;9.43;8.23;;;;;;;13.10;53.99;101395.50;1720030;81;21968;-49
2021/04/21 03:52:46;;;;;;;9.28;7.83;;;;;;;13.02;54.63;101403.45;1715580;83;21588;-49
2021/04/21 03:55:15;;;;;;;8.58;7.78;;;;;;;12.95;54.78;101403.19;1719994;83;21180;-49
2021/04/21 03:57:45;;;;;;;9.35;8.45;;;;;;;12.96;54.97;101398.36;1725083;83;21625;-49
2021/04/21 04:00:17;;;;;;;8.15;7.40;;;;;;;13.01;54.99;101403.05;1720604;83;21192;-48
2021/04/21 04:02:56;;;;;;;9.58;7.60;;;;;;;13.05;54.95;101406.48;1670633;86;21204;-49
2021/04/21 04:06:01;;;;;;;9.38;8.23;;;;;;;13.14;54.74;101410.66;1817316;79;23086;-48
2021/04/21 04:08:34;;;;;;;9.73;8.68;;;;;;;13.08;54.84;101418.62;1706285;83;21171;-48
2021/04/21 04:11:14;;;;;;;9.98;9.08;;;;;;;13.12;54.97;101415.05;1771833;79;23094;-49
2021/04/21 04:13:47;;;;;;;9.08;8.18;;;;;;;13.14;55.05;101420.67;1734568;82;21156;-49
2021/04/21 04:16:15;;;;;;;10.45;8.98;;;;;;;13.20;54.97;101420.97;1734116;82;21189;-49
2021/04/21 04:18:43;;;;;;;8.18;7.45;;;;;;;13.25;54.82;101427.81;1722761;82;21148;-49
2021/04/21 04:21:12;;;;;;;10.82;8.20;;;;;;;13.27;54.94;101421.27;1746521;81;21144;-49
2021/04/21 04:23:41;;;;;;;10.25;7.72;;;;;;;13.35;55.00;101424.56;1738963;82;21196;-49
2021/04/21 04:26:10;;;;;;;8.55;7.67;;;;;;;13.43;54.94;101426.55;1734601;82;21187;-49
2021/04/21 04:28:38;;;;;;;8.35;7.47;;;;;;;13.51;54.51;101429.85;1741238;82;21188;-49
2021/04/21 04:31:07;;;;;;;8.38;7.58;;;;;;;13.59;54.19;101429.23;1710288;82;21141;-48
2021/04/21 04:33:35;;;;;;;10.03;8.45;;;;;;;13.66;54.02;101437.35;1739135;82;21286;-49
2021/04/21 04:36:05;;;;;;;9.15;8.15;;;;;;;13.72;53.66;101429.36;1683149;84;21246;-51
2021/04/21 04:38:34;;;;;;;8.85;7.95;;;;;;;13.76;53.44;101438.41;1663008;86;21239;-49
2021/04/21 04:41:02;;;;;;;9.08;8.18;;;;;;;13.81;53.25;101437.83;1647650;87;21188;-50
2021/04/21 04:43:30;;;;;;;8.38;7.58;;;;;;;13.84;53.22;101442.14;1632761;87;21165;-49
2021/04/21 04:46:01;;;;;;;9.50;7.72;;;;;;;13.87;53.24;101443.36;1633051;87;21654;-50
2021/04/21 04:48:47;;;;;;;8.70;7.80;;;;;;;13.92;53.36;101442.81;1633050;87;21175;-50
2021/04/21 04:51:15;;;;;;;8.38;7.62;;;;;;;13.91;53.61;101447.61;1650672;86;21183;-50
2021/04/21 04:53:43;;;;;;;8.68;7.90;;;;;;;13.95;53.63;101447.95;1664009;84;21317;-49
2021/04/21 04:56:11;;;;;;;10.15;9.25;;;;;;;13.96;53.68;101448.38;1663356;85;21330;-50
2021/04/21 04:58:40;;;;;;;8.90;8.10;;;;;;;14.03;53.57;101448.65;1692797;84;21198;-49
2021/04/21 05:01:09;;;;;;;8.75;7.85;;;;;;;14.10;53.38;101454.13;1730459;81;21152;-49
2021/04/21 05:03:52;;;;;;;10.82;8.65;;;;;;;14.17;53.21;101462.24;1744817;81;21120;-50
2021/04/21 05:06:34;;;;;;;9.20;8.30;;;;;;;14.23;53.18;101463.84;1748160;81;21302;-50
2021/04/21 05:09:04;;;;;;;8.53;7.72;;;;;;;14.27;53.26;101470.27;1740937;81;21615;-49
2021/04/21 05:11:32;;;;;;;8.40;7.60;;;;;;;14.32;53.08;101471.03;1736205;82;21144;-49
2021/04/21 05:14:00;;;;;;;8.65;7.83;;;;;;;14.56;52.35;101469.10;1688856;82;21580;-49
2021/04/21 05:16:58;;;;;;;8.28;7.15;;;;;;;14.63;51.99;101470.64;1736703;82;21166;-49
2021/04/21 05:20:06;;;;;;;8.35;7.55;;;;;;;14.72;52.05;101473.91;1711485;83;21235;-49
2021/04/21 05:23:11;;;;;;;9.78;8.38;;;;;;;14.80;52.07;101478.48;1701405;83;21137;-48
2021/04/21 05:26:18;;;;;;;8.53;7.72;;;;;;;14.89;51.99;101475.62;1697977;83;21232;-49
2021/04/21 05:29:25;;;;;;;8.93;8.13;;;;;;;15.00;51.84;101474.88;1706208;83;21164;-49
2021/04/21 05:32:41;;;;;;;10.05;8.03;;;;;;;15.10;51.67;101472.39;1700984;83;21297;-48
2021/04/21 05:35:34;;;;;;;9.23;7.75;;;;;;;15.16;51.53;101468.28;1697281;83;21185;-48
2021/04/21 05:38:53;;;;;;;8.85;7.75;;;;;;;15.27;51.88;101476.70;1693010;83;21588;-49
2021/04/21 05:42:06;;;;;;;11.60;7.47;;;;;;;15.58;52.11;101480.13;1702285;83;21180;-49
2021/04/21 05:45:11;;;;;;;8.60;6.80;;;;;;;16.14;50.43;101476.56;1697114;83;21632;-49
2021/04/21 05:48:26;;;;;;;10.58;7.35;;;;;;;16.30;50.02;101478.21;1704729;83;21136;-49
2021/04/21 05:51:34;;;;;;;8.55;7.65;;;;;;;16.59;49.44;101473.33;1771354;79;22307;-49
2021/04/21 05:54:33;;;;;;;8.08;7.28;;;;;;;16.70;49.24;101484.30;1724751;82;21180;-49
2021/04/21 05:57:31;;;;;;;7.90;7.10;;;;;;;17.10;48.12;101479.34;1731706;82;21164;-49
2021/04/21 06:00:22;;;;;;;7.70;6.90;;;;;;;17.04;48.11;101475.14;1734414;82;21160;-48
2021/04/21 06:02:50;;;;;;;7.67;6.87;;;;;;;17.14;48.41;101482.25;1740676;82;21180;-48
2021/04/21 06:05:18;;;;;;;9.28;8.28;;;;;;;17.46;47.69;101476.63;1740995;82;21168;-48
2021/04/21 06:07:46;;;;;;;8.65;7.40;;;;;;;17.39;47.60;101475.16;1738696;82;21382;-48
2021/04/21 06:10:28;;;;;;;7.83;7.03;;;;;;;17.43;47.49;101478.07;1739731;82;21647;-49
2021/04/21 06:13:00;;;;;;;12.73;7.12;;;;;;;17.54;47.65;101479.84;1657396;85;21208;-49
2021/04/21 06:15:33;;;;;;;7.70;7.00;;;;;;;17.71;47.62;101485.31;1653015;86;21221;-49
2021/04/21 06:18:03;;;;;;;8.35;7.58;;;;;;;17.88;47.37;101486.83;1658537;86;21669;-48
2021/04/21 06:20:36;;;;;;;8.55;7.62;;;;;;;18.07;46.66;101485.63;1647234;86;21197;-49
2021/04/21 06:23:11;;;;;;;7.83;6.90;;;;;;;18.25;46.21;101487.94;1655206;86;21200;-48
2021/04/21 06:25:44;;;;;;;7.28;6.67;;;;;;;18.37;45.89;101487.42;1657280;86;21184;-48
2021/04/21 06:28:22;;;;;;;9.03;7.22;;;;;;;18.42;45.49;101496.84;1656764;86;21196;-48
2021/04/21 06:31:11;;;;;;;9.30;6.53;;;;;;;18.47;45.61;101492.73;1655205;86;21168;-48
2021/04/21 06:33:42;;;;;;;6.80;6.20;;;;;;;18.55;45.16;101489.30;1652155;86;21708;-48
2021/04/21 06:36:12;;;;;;;7.72;6.55;;;;;;;18.76;45.11;101492.34;1657420;86;21164;-49
2021/04/21 06:38:41;;;;;;;6.90;6.20;;;;;;;19.05;44.60;101502.45;1652921;86;21263;-50
2021/04/21 06:41:10;;;;;;;7.25;6.55;;;;;;;19.35;44.18;101507.69;1654764;86;21220;-48
2021/04/21 06:43:39;;;;;;;6.78;6.15;;;;;;;19.61;44.06;101508.27;1640064;86;21374;-48
2021/04/21 06:46:10;;;;;;;8.73;7.22;;;;;;;19.82;43.41;101509.89;1652082;86;21184;-48
2021/04/21 06:48:40;;;;;;;6.47;5.95;;;;;;;20.00;43.14;101515.61;1659983;86;21326;-48
2021/04/21 06:51:14;;;;;;;7.45;6.58;;;;;;;20.25;43.01;101513.51;1682406;84;21168;-49
2021/04/21 06:53:44;;;;;;;7.28;6.60;;;;;;;20.53;42.25;101518.25;1675489;84;21259;-48
2021/04/21 06:56:14;;;;;;;7.78;7.08;;;;;;;20.84;42.05;101507.34;1686017;84;21156;-48
2021/04/21 06:58:43;;;;;;;6.70;6.00;;;;;;;21.16;42.20;101507.47;1678738;84;21204;-49
2021/04/21 07:01:14;;;;;;;6.20;5.45;;;;;;;21.44;41.21;101510.33;1682939;84;21149;-49
2021/04/21 07:03:43;;;;;;;6.45;5.67;;;;;;;21.71;39.97;101511.46;1682688;84;21204;-49
2021/04/21 07:06:13;;;;;;;14.98;7.58;;;;;;;21.96;39.60;101514.48;1682998;84;21215;-49
2021/04/21 07:08:41;;;;;;;10.63;7.37;;;;;;;22.20;39.85;101514.39;1715746;81;21326;-48
2021/04/21 07:11:11;;;;;;;11.08;8.63;;;;;;;22.42;39.35;101514.84;1745567;81;21590;-50
2021/04/21 07:13:47;;;;;;;9.30;8.20;;;;;;;22.58;39.33;101516.16;1748108;81;21588;-48
2021/04/21 07:16:22;;;;;;;8.75;7.80;;;;;;;22.70;39.48;101517.22;1742905;81;21588;-48
2021/04/21 07:19:05;;;;;;;8.80;8.00;;;;;;;22.76;39.47;101522.16;1745011;81;21164;-48
2021/04/21 07:21:33;;;;;;;8.55;7.70;;;;;;;22.79;39.20;101515.35;1706786;83;21309;-49
2021/04/21 07:24:03;;;;;;;9.55;8.05;;;;;;;22.80;38.91;101510.41;1708082;83;21151;-48
2021/04/21 07:26:38;;;;;;;9.73;8.83;;;;;;;22.75;39.48;101521.79;1710924;83;21155;-48
2021/04/21 07:29:22;;;;;;;10.70;9.48;;;;;;;22.74;39.66;101518.73;1616346;86;21258;-48
2021/04/21 07:31:50;;;;;;;11.93;10.68;;;;;;;22.74;39.58;101521.39;1670407;85;21196;-49
2021/04/21 07:34:32;;;;;;;9.00;8.10;;;;;;;22.72;39.79;101520.63;1670275;85;21289;-49
2021/04/21 07:37:07;;;;;;;7.92;7.22;;;;;;;22.70;39.53;101525.17;1822321;77;23665;-48
2021/04/21 07:39:37;;;;;;;8.73;7.85;;;;;;;22.51;39.71;101534.20;1819581;78;21600;-48
2021/04/21 07:42:18;;;;;;;8.43;7.63;;;;;;;22.33;40.08;101539.26;1813186;78;21148;-47
2021/04/21 07:44:52;;;;;;;9.08;7.62;;;;;;;22.11;40.50;101542.77;1808190;78;21155;-47
2021/04/21 07:47:25;;;;;;;10.18;8.23;;;;;;;21.88;41.03;101546.69;1754337;81;21164;-48
2021/04/21 07:49:59;;;;;;;10.70;8.73;;;;;;;21.68;41.73;101548.70;1747410;81;21156;-48
2021/04/21 07:52:33;;;;;;;9.13;8.33;;;;;;;21.44;42.45;101553.55;1748843;81;21180;-48
2021/04/21 07:55:21;;;;;;;8.95;7.85;;;;;;;21.22;42.86;101550.36;1762296;80;21889;-48
2021/04/21 07:58:03;;;;;;;9.38;8.45;;;;;;;21.02;43.38;101556.68;1758934;81;21176;-48
2021/04/21 08:00:33;;;;;;;11.43;8.43;;;;;;;20.77;44.04;101562.81;1750368;81;21128;-48
2021/04/21 08:03:01;;;;;;;9.00;8.10;;;;;;;20.56;44.95;101559.09;1760398;81;21144;-48
2021/04/21 08:05:30;;;;;;;9.20;8.30;;;;;;;20.39;45.44;101573.14;1760668;81;21188;-48
2021/04/21 08:08:02;;;;;;;9.73;8.20;;;;;;;20.24;45.74;101560.67;1752127;81;21160;-49
2021/04/21 08:13:11;;;;;;;9.58;8.45;;;;;;;20.01;46.65;101563.56;1807860;79;22989;-50
2021/04/21 08:15:39;;;;;;;8.45;7.55;;;;;;;19.85;47.19;101570.47;1763124;80;21204;-49
2021/04/21 08:18:10;;;;;;;8.40;7.53;;;;;;;19.72;47.71;101564.08;1783608;80;21155;-49
2021/04/21 08:20:45;;;;;;;9.08;8.23;;;;;;;19.63;47.78;101565.81;1767181;80;21276;-49
2021/04/21 08:23:18;;;;;;;9.68;8.18;;;;;;;19.55;47.99;101569.27;1775631;80;21325;-49
2021/04/21 08:25:48;;;;;;;8.28;7.47;;;;;;;19.45;48.40;101567.03;1780162;80;21580;-49
2021/04/21 08:28:16;;;;;;;11.57;9.13;;;;;;;19.41;48.33;101573.38;1777119;80;21164;-49
2021/04/21 08:30:59;;;;;;;11.30;8.60;;;;;;;19.38;48.58;101576.17;1778704;80;21310;-49
2021/04/21 08:33:28;;;;;;;8.78;7.97;;;;;;;19.35;49.04;101571.02;1778604;80;21124;-50
2021/04/21 08:35:56;;;;;;;9.28;8.05;;;;;;;19.35;49.16;101577.62;1779458;80;21600;-49
2021/04/21 08:38:24;;;;;;;9.90;8.55;;;;;;;19.35;49.12;101571.02;1780226;80;21639;-49
2021/04/21 08:40:52;;;;;;;9.03;8.13;;;;;;;19.35;49.34;101569.70;1779979;80;21164;-47
2021/04/21 08:43:22;;;;;;;8.90;7.65;;;;;;;19.36;49.25;101568.80;1773720;80;21160;-49
2021/04/21 08:45:52;;;;;;;9.23;7.80;;;;;;;19.36;49.00;101564.83;1771534;80;21160;-48
2021/04/21 08:48:20;;;;;;;8.13;7.37;;;;;;;19.33;48.81;101562.31;1775839;80;21207;-48
2021/04/21 08:50:47;;;;;;;9.13;7.50;;;;;;;19.32;49.16;101568.50;1741020;80;21726;-48
2021/04/21 08:53:15;;;;;;;8.98;7.95;;;;;;;19.33;49.49;101564.95;1783895;80;21175;-48
2021/04/21 08:55:45;;;;;;;10.18;8.00;;;;;;;19.36;49.53;101562.19;1754914;81;21575;-49
2021/04/21 08:58:14;;;;;;;10.40;7.70;;;;;;;19.42;49.79;101567.19;1780252;80;21109;-48
2021/04/21 09:00:41;;;;;;;8.75;7.78;;;;;;;19.44;49.50;101569.30;1779839;80;21179;-49
2021/04/21 09:03:10;;;;;;;8.73;7.53;;;;;;;19.47;49.09;101571.78;1778968;80;21169;-48
2021/04/21 09:05:38;;;;;;;8.73;7.65;;;;;;;19.49;49.04;101571.25;1777329;80;21600;-49
2021/04/21 09:08:08;;;;;;;7.75;7.00;;;;;;;19.47;48.72;101569.14;1775786;80;21218;-50
2021/04/21 09:10:38;;;;;;;8.18;7.40;;;;;;;19.44;48.86;101571.94;1779068;80;21136;-48
2021/04/21 09:13:11;;;;;;;10.13;7.22;;;;;;;19.37;49.19;101574.45;1773188;80;21286;-48
2021/04/21 09:15:39;;;;;;;;;;;;;;;19.30;49.13;101573.00;1775063;80;21165;-48
2021/04/21 09:18:08;;;;;;;7.47;6.33;;;;;;;19.25;49.47;101573.65;1771474;80;20487;-49
2021/04/21 09:20:44;;;;;;;7.40;6.70;;;;;;;19.22;49.50;101575.13;1758907;80;21189;-48
2021/04/21 09:23:15;;;;;;;8.43;6.17;;;;;;;19.17;49.64;101582.37;1718780;83;21168;-49
2021/04/21 09:25:53;;;;;;;6.65;5.97;;;;;;;19.12;49.66;101580.41;1723132;83;21205;-48
2021/04/21 09:28:32;;;;;;;8.55;6.58;;;;;;;19.10;49.85;101580.91;1771798;79;23085;-49
2021/04/21 09:31:00;;;;;;;8.68;6.22;;;;;;;19.02;49.97;101577.75;1741108;82;21200;-47
2021/04/21 09:33:29;;;;;;;7.00;6.30;;;;;;;19.02;50.33;101579.56;1739602;82;21624;-49
2021/04/21 09:35:57;;;;;;;7.35;6.35;;;;;;;19.02;50.12;101577.75;1740312;82;21152;-49
2021/04/21 09:38:27;;;;;;;12.90;6.65;;;;;;;19.02;50.03;101575.11;1688716;83;21621;-48
2021/04/21 09:41:01;;;;;;;8.43;6.17;;;;;;;19.02;49.60;101579.07;1740988;80;21163;-48
2021/04/21 09:43:34;;;;;;;7.22;6.03;;;;;;;18.99;49.51;101580.54;1689030;84;21188;-48
2021/04/21 09:46:19;;;;;;;6.92;6.22;;;;;;;19.00;49.23;101578.28;1771489;79;22289;-49
2021/04/21 09:48:48;;;;;;;7.10;6.40;;;;;;;18.94;49.11;101571.95;1733528;82;21193;-47
2021/04/21 09:51:19;;;;;;;7.85;6.47;;;;;;;18.91;49.06;101568.16;1741011;82;21112;-50
2021/04/21 09:53:49;;;;;;;6.60;5.67;;;;;;;18.90;49.00;101561.14;1737615;82;21199;-49
2021/04/21 09:56:22;;;;;;;6.95;6.30;;;;;;;18.89;49.07;101567.36;1736765;82;21155;-49
2021/04/21 09:58:56;;;;;;;6.83;6.17;;;;;;;18.89;48.66;101570.00;1741312;82;21152;-50
2021/04/21 10:01:37;;;;;;;7.60;6.42;;;;;;;18.91;48.64;101570.79;1733998;82;21172;-49
2021/04/21 10:04:24;;;;;;;8.90;7.20;;;;;;;18.93;48.88;101570.26;1738712;82;21128;-49
2021/04/21 10:07:00;;;;;;;9.75;7.60;;;;;;;18.96;48.87;101564.00;1734630;82;21280;-48
2021/04/21 10:09:33;;;;;;;7.50;6.72;;;;;;;19.00;49.22;101568.22;1728352;82;21169;-48
2021/04/21 10:12:23;;;;;;;10.40;7.15;;;;;;;19.07;49.47;101564.37;1807667;79;22102;-50
2021/04/21 10:15:11;;;;;;;8.28;7.47;;;;;;;19.05;49.53;101556.53;1772051;80;21179;-50
2021/04/21 10:17:43;;;;;;;13.25;8.03;;;;;;;19.06;49.58;101567.95;1771895;80;21596;-48
2021/04/21 10:20:16;;;;;;;10.88;6.90;;;;;;;19.05;49.62;101563.13;1766999;80;21151;-47
2021/04/21 10:22:47;;;;;;;7.58;6.87;;;;;;;19.07;49.82;101567.88;1710697;83;21175;-49
2021/04/21 10:25:16;;;;;;;;;;;;;;;19.08;50.37;101562.14;1713485;83;21175;-47
2021/04/21 10:27:44;;;;;;;11.65;6.80;;;;;;;19.11;50.34;101565.49;1711795;83;20457;-48
2021/04/21 10:30:14;;;;;;;7.00;6.40;;;;;;;19.19;50.07;101569.97;1666058;83;21132;-48
2021/04/21 10:32:42;;;;;;;12.13;6.72;;;;;;;19.21;49.88;101567.25;1711017;83;21232;-47
2021/04/21 10:35:12;;;;;;;18.23;7.53;;;;;;;19.25;49.36;101566.19;1708737;83;21163;-47
2021/04/21 10:37:41;;;;;;;16.90;7.67;;;;;;;19.24;49.16;101567.99;1708739;83;21164;-48
2021/04/21 10:40:11;;;;;;;8.40;7.60;;;;;;;19.22;49.39;101572.48;1708684;83;21167;-48
2021/04/21 10:42:52;;;;;;;9.10;8.10;;;;;;;19.19;49.70;101567.78;1705858;83;21182;-48
2021/04/21 10:45:28;;;;;;;11.00;9.80;;;;;;;19.09;50.06;101573.94;1756900;79;28695;-49
2021/04/21 10:47:57;;;;;;;9.90;7.60;;;;;;;18.95;50.47;101573.69;1747291;82;21145;-49
2021/04/21 10:50:43;;;;;;;16.30;9.35;;;;;;;18.94;50.54;101569.32;1737043;82;21141;-49
2021/04/21 10:53:33;;;;;;;13.28;7.60;;;;;;;18.88;50.74;101570.91;1736230;82;21153;-50
2021/04/21 10:56:24;;;;;;;10.90;7.97;;;;;;;18.88;50.60;101577.95;1727981;82;21196;-49
2021/04/21 10:58:57;;;;;;;10.10;8.83;;;;;;;18.89;50.11;101568.68;1659370;84;21262;-49
2021/04/21 11:01:34;;;;;;;8.75;7.95;;;;;;;18.88;50.08;101569.59;1656868;86;21197;-50
2021/04/21 11:04:05;;;;;;;14.98;8.88;;;;;;;18.88;50.49;101568.27;1656118;86;21180;-49
2021/04/21 11:06:45;;;;;;;9.97;8.97;;;;;;;18.89;51.23;101571.77;1643422;86;21673;-49
2021/04/21 11:09:13;;;;;;;10.30;8.78;;;;;;;18.90;51.60;101573.02;1643238;86;21928;-49
2021/04/21 11:11:49;;;;;;;11.57;8.98;;;;;;;18.92;51.65;101586.98;1654368;86;21346;-49
2021/04/21 11:14:50;;;;;;;11.73;8.60;;;;;;;18.95;51.54;101594.78;1654832;86;21672;-48
2021/04/21 11:17:26;;;;;;;8.05;7.22;;;;;;;19.05;51.54;101603.15;1772191;79;22670;-49
2021/04/21 11:19:54;;;;;;;9.48;8.45;;;;;;;19.07;51.37;101617.99;1736325;82;21140;-49
2021/04/21 11:22:28;;;;;;;8.35;7.55;;;;;;;19.16;51.23;101624.66;1735347;82;21274;-50
2021/04/21 11:25:24;;;;;;;10.03;8.63;;;;;;;19.20;50.70;101627.10;1735303;82;21282;-50
2021/04/21 11:27:52;;;;;;;7.78;7.08;;;;;;;19.19;50.30;101628.47;1658853;86;21198;-49
2021/04/21 11:30:39;;;;;;;7.97;7.22;;;;;;;19.13;50.02;101634.88;1652102;86;21127;-49
2021/04/21 11:33:35;;;;;;;9.00;8.10;;;;;;;19.36;49.49;101629.95;1816222;79;23524;-49
2021/04/21 11:36:37;;;;;;;10.30;8.30;;;;;;;19.45;49.17;101633.03;1782547;80;21153;-50
2021/04/21 11:39:07;;;;;;;8.90;8.05;;;;;;;18.95;50.77;101636.98;1787080;80;21144;-50
2021/04/21 11:41:46;;;;;;;8.88;8.05;;;;;;;18.82;51.33;101635.77;1746176;81;21311;-49
2021/04/21 11:45:06;;;;;;;10.72;8.68;;;;;;;18.72;51.66;101638.40;1720257;81;21643;-48
2021/04/21 11:47:44;;;;;;;10.72;8.88;;;;;;;18.67;51.36;101652.22;1741375;81;21200;-48
2021/04/21 11:50:28;;;;;;;9.95;7.83;;;;;;;18.62;51.17;101664.74;1715803;82;21302;-48
2021/04/21 11:53:13;;;;;;;9.18;8.28;;;;;;;18.60;50.88;101673.17;1722078;83;21159;-48
2021/04/21 11:58:40;;;;;;;8.25;7.37;;;;;;;18.58;48.86;101655.24;1820212;77;23099;-47
2021/04/21 12:01:12;;;;;;;10.78;7.55;;;;;;;18.51;48.42;101657.27;1779405;80;21117;-47
2021/04/21 12:03:41;;;;;;;9.48;6.75;;;;;;;18.47;47.92;101657.44;1773164;80;21195;-47
2021/04/21 12:06:15;;;;;;;9.48;6.78;;;;;;;18.44;47.01;101657.58;1774716;80;21160;-48
2021/04/21 12:08:50;;;;;;;11.10;7.53;;;;;;;18.42;47.10;101662.02;1748004;81;21293;-48
2021/04/21 12:11:28;;;;;;;10.13;6.97;;;;;;;18.42;47.32;101669.92;1775688;80;21140;-47
2021/04/21 12:13:57;;;;;;;8.55;7.72;;;;;;;18.37;47.83;101667.47;1762070;81;21148;-47
2021/04/21 12:16:27;;;;;;;7.87;7.22;;;;;;;18.37;49.12;101666.60;1770311;81;21184;-49